sensor_id;sensor_type;location;lat;lon;timestamp;temperature;humidity
40289;DHT22;28991;52.028;5.526;2024-01-30T00:00:06;18.20;47.00
40289;DHT22;28991;52.028;5.526;2024-01-30T00:02:33;18.20;47.10
40289;DHT22;28991;52.028;5.526;2024-01-30T00:04:59;18.20;47.10
40289;DHT22;28991;52.028;5.526;2024-01-30T00:07:24;18.20;47.10
40289;DHT22;28991;52.028;5.526;2024-01-30T00:09:50;18.20;47.10
40289;DHT22;28991;52.028;5.526;2024-01-30T00:12:16;18.60;47.30
40289;DHT22;28991;52.028;5.526;2024-01-30T00:14:42;18.10;47.00
40289;DHT22;28991;52.028;5.526;2024-01-30T00:17:10;18.20;47.10
40289;DHT22;28991;52.028;5.526;2024-01-30T00:19:36;18.20;47.10
40289;DHT22;28991;52.028;5.526;2024-01-30T00:22:02;18.20;47.10
40289;DHT22;28991;52.028;5.526;2024-01-30T00:24:27;18.20;47.10
40289;DHT22;28991;52.028;5.526;2024-01-30T00:26:53;18.20;47.10
40289;DHT22;28991;52.028;5.526;2024-01-30T00:29:18;18.20;47.10
40289;DHT22;28991;52.028;5.526;2024-01-30T00:31:45;18.40;47.20
40289;DHT22;28991;52.028;5.526;2024-01-30T00:34:11;18.30;47.10
40289;DHT22;28991;52.028;5.526;2024-01-30T00:36:37;18.20;47.10
40289;DHT22;28991;52.028;5.526;2024-01-30T00:39:03;18.20;47.10
40289;DHT22;28991;52.028;5.526;2024-01-30T00:41:31;18.20;47.20
40289;DHT22;28991;52.028;5.526;2024-01-30T00:43:57;18.20;47.20
40289;DHT22;28991;52.028;5.526;2024-01-30T00:46:23;18.20;47.20
40289;DHT22;28991;52.028;5.526;2024-01-30T00:48:48;18.20;47.20
40289;DHT22;28991;52.028;5.526;2024-01-30T00:51:14;18.20;47.20
40289;DHT22;28991;52.028;5.526;2024-01-30T00:53:40;18.20;47.20
40289;DHT22;28991;52.028;5.526;2024-01-30T00:56:07;18.20;47.20
40289;DHT22;28991;52.028;5.526;2024-01-30T00:58:33;18.20;47.20
40289;DHT22;28991;52.028;5.526;2024-01-30T01:00:58;18.10;47.20
40289;DHT22;28991;52.028;5.526;2024-01-30T01:03:24;18.20;47.20
40289;DHT22;28991;52.028;5.526;2024-01-30T01:05:50;18.10;47.20
40289;DHT22;28991;52.028;5.526;2024-01-30T01:08:16;18.20;47.20
40289;DHT22;28991;52.028;5.526;2024-01-30T01:10:41;18.10;47.20
40289;DHT22;28991;52.028;5.526;2024-01-30T01:13:07;18.20;47.20
40289;DHT22;28991;52.028;5.526;2024-01-30T01:15:32;18.50;47.40
40289;DHT22;28991;52.028;5.526;2024-01-30T01:17:58;18.30;47.30
40289;DHT22;28991;52.028;5.526;2024-01-30T01:20:24;18.40;47.30
40289;DHT22;28991;52.028;5.526;2024-01-30T01:22:49;18.00;47.10
40289;DHT22;28991;52.028;5.526;2024-01-30T01:25:15;18.20;47.20
40289;DHT22;28991;52.028;5.526;2024-01-30T01:27:41;18.20;47.30
40289;DHT22;28991;52.028;5.526;2024-01-30T01:30:09;18.10;47.20
40289;DHT22;28991;52.028;5.526;2024-01-30T01:32:35;18.20;47.30
40289;DHT22;28991;52.028;5.526;2024-01-30T01:35:01;18.10;47.20
40289;DHT22;28991;52.028;5.526;2024-01-30T01:37:27;18.10;47.30
40289;DHT22;28991;52.028;5.526;2024-01-30T01:39:53;18.10;47.20
40289;DHT22;28991;52.028;5.526;2024-01-30T01:42:18;18.10;47.20
40289;DHT22;28991;52.028;5.526;2024-01-30T01:44:44;18.10;47.30
40289;DHT22;28991;52.028;5.526;2024-01-30T01:47:10;18.10;47.30
40289;DHT22;28991;52.028;5.526;2024-01-30T01:49:35;18.10;47.20
40289;DHT22;28991;52.028;5.526;2024-01-30T01:52:01;17.90;47.20
40289;DHT22;28991;52.028;5.526;2024-01-30T01:54:28;18.10;47.20
40289;DHT22;28991;52.028;5.526;2024-01-30T01:56:54;18.10;47.30
40289;DHT22;28991;52.028;5.526;2024-01-30T01:59:21;18.10;47.90
40289;DHT22;28991;52.028;5.526;2024-01-30T02:01:47;18.10;47.30
40289;DHT22;28991;52.028;5.526;2024-01-30T02:04:16;18.10;47.30
40289;DHT22;28991;52.028;5.526;2024-01-30T02:06:43;17.70;47.10
40289;DHT22;28991;52.028;5.526;2024-01-30T02:09:09;18.10;47.40
40289;DHT22;28991;52.028;5.526;2024-01-30T02:11:35;18.10;47.30
40289;DHT22;28991;52.028;5.526;2024-01-30T02:14:04;18.20;47.50
40289;DHT22;28991;52.028;5.526;2024-01-30T02:16:33;18.10;47.40
40289;DHT22;28991;52.028;5.526;2024-01-30T02:18:59;18.10;47.30
40289;DHT22;28991;52.028;5.526;2024-01-30T02:21:25;18.50;47.60
40289;DHT22;28991;52.028;5.526;2024-01-30T02:23:51;18.10;47.40
40289;DHT22;28991;52.028;5.526;2024-01-30T02:26:17;18.10;47.40
40289;DHT22;28991;52.028;5.526;2024-01-30T02:28:43;18.20;47.40
40289;DHT22;28991;52.028;5.526;2024-01-30T02:31:08;18.10;47.40
40289;DHT22;28991;52.028;5.526;2024-01-30T02:33:34;18.10;47.40
40289;DHT22;28991;52.028;5.526;2024-01-30T02:35:59;18.00;47.40
40289;DHT22;28991;52.028;5.526;2024-01-30T02:38:25;18.00;47.30
40289;DHT22;28991;52.028;5.526;2024-01-30T02:40:52;18.10;47.40
40289;DHT22;28991;52.028;5.526;2024-01-30T02:43:18;18.10;47.40
40289;DHT22;28991;52.028;5.526;2024-01-30T02:45:43;18.00;47.30
40289;DHT22;28991;52.028;5.526;2024-01-30T02:48:09;18.10;47.40
40289;DHT22;28991;52.028;5.526;2024-01-30T02:50:34;18.00;47.40
40289;DHT22;28991;52.028;5.526;2024-01-30T02:53:00;18.10;47.40
40289;DHT22;28991;52.028;5.526;2024-01-30T02:55:26;18.10;47.40
40289;DHT22;28991;52.028;5.526;2024-01-30T02:57:51;18.00;47.40
40289;DHT22;28991;52.028;5.526;2024-01-30T03:00:17;18.10;47.50
40289;DHT22;28991;52.028;5.526;2024-01-30T03:02:45;18.00;47.40
40289;DHT22;28991;52.028;5.526;2024-01-30T03:05:10;18.10;47.50
40289;DHT22;28991;52.028;5.526;2024-01-30T03:07:36;18.10;47.50
40289;DHT22;28991;52.028;5.526;2024-01-30T03:10:01;18.30;47.60
40289;DHT22;28991;52.028;5.526;2024-01-30T03:12:27;18.00;47.50
40289;DHT22;28991;52.028;5.526;2024-01-30T03:14:53;18.10;47.60
40289;DHT22;28991;52.028;5.526;2024-01-30T03:17:18;18.00;47.50
40289;DHT22;28991;52.028;5.526;2024-01-30T03:19:44;18.10;47.50
40289;DHT22;28991;52.028;5.526;2024-01-30T03:22:09;18.00;47.40
40289;DHT22;28991;52.028;5.526;2024-01-30T03:24:35;18.20;47.60
40289;DHT22;28991;52.028;5.526;2024-01-30T03:27:00;18.00;47.50
40289;DHT22;28991;52.028;5.526;2024-01-30T03:29:26;18.10;47.60
40289;DHT22;28991;52.028;5.526;2024-01-30T03:31:52;18.00;48.10
40289;DHT22;28991;52.028;5.526;2024-01-30T03:34:17;18.10;47.60
40289;DHT22;28991;52.028;5.526;2024-01-30T03:36:43;18.00;47.60
40289;DHT22;28991;52.028;5.526;2024-01-30T03:39:09;18.00;47.60
40289;DHT22;28991;52.028;5.526;2024-01-30T03:41:34;18.90;48.00
40289;DHT22;28991;52.028;5.526;2024-01-30T03:44:00;17.90;47.50
40289;DHT22;28991;52.028;5.526;2024-01-30T03:46:25;18.00;47.50
40289;DHT22;28991;52.028;5.526;2024-01-30T03:48:51;18.30;47.70
40289;DHT22;28991;52.028;5.526;2024-01-30T03:51:16;19.00;48.10
40289;DHT22;28991;52.028;5.526;2024-01-30T03:53:43;17.90;47.50
40289;DHT22;28991;52.028;5.526;2024-01-30T03:56:08;18.00;47.60
40289;DHT22;28991;52.028;5.526;2024-01-30T03:58:34;18.00;47.60
40289;DHT22;28991;52.028;5.526;2024-01-30T04:01:00;18.00;47.60
40289;DHT22;28991;52.028;5.526;2024-01-30T04:03:26;18.20;47.70
40289;DHT22;28991;52.028;5.526;2024-01-30T04:05:52;18.10;47.60
40289;DHT22;28991;52.028;5.526;2024-01-30T04:08:18;18.00;47.60
40289;DHT22;28991;52.028;5.526;2024-01-30T04:10:44;18.00;47.60
40289;DHT22;28991;52.028;5.526;2024-01-30T04:13:09;18.00;47.60
40289;DHT22;28991;52.028;5.526;2024-01-30T04:15:35;18.00;47.70
40289;DHT22;28991;52.028;5.526;2024-01-30T04:18:01;18.00;47.60
40289;DHT22;28991;52.028;5.526;2024-01-30T04:20:26;18.10;47.70
40289;DHT22;28991;52.028;5.526;2024-01-30T04:22:52;18.00;47.70
40289;DHT22;28991;52.028;5.526;2024-01-30T04:25:18;18.00;47.60
40289;DHT22;28991;52.028;5.526;2024-01-30T04:27:43;18.00;47.60
40289;DHT22;28991;52.028;5.526;2024-01-30T04:30:09;18.00;47.70
40289;DHT22;28991;52.028;5.526;2024-01-30T04:32:35;18.00;47.70
40289;DHT22;28991;52.028;5.526;2024-01-30T04:35:01;17.90;47.60
40289;DHT22;28991;52.028;5.526;2024-01-30T04:37:27;17.90;47.60
40289;DHT22;28991;52.028;5.526;2024-01-30T04:39:53;18.00;47.70
40289;DHT22;28991;52.028;5.526;2024-01-30T04:42:18;18.00;47.70
40289;DHT22;28991;52.028;5.526;2024-01-30T04:44:44;18.10;47.70
40289;DHT22;28991;52.028;5.526;2024-01-30T04:47:09;17.90;47.60
40289;DHT22;28991;52.028;5.526;2024-01-30T04:49:40;17.80;47.60
40289;DHT22;28991;52.028;5.526;2024-01-30T04:52:09;18.10;47.70
40289;DHT22;28991;52.028;5.526;2024-01-30T04:54:35;17.90;47.70
40289;DHT22;28991;52.028;5.526;2024-01-30T04:57:04;18.20;47.80
40289;DHT22;28991;52.028;5.526;2024-01-30T04:59:33;17.90;47.70
40289;DHT22;28991;52.028;5.526;2024-01-30T05:01:59;18.00;47.70
40289;DHT22;28991;52.028;5.526;2024-01-30T05:04:24;18.40;47.80
40289;DHT22;28991;52.028;5.526;2024-01-30T05:06:50;18.00;47.70
40289;DHT22;28991;52.028;5.526;2024-01-30T05:09:16;17.90;47.60
40289;DHT22;28991;52.028;5.526;2024-01-30T05:11:41;17.80;47.60
40289;DHT22;28991;52.028;5.526;2024-01-30T05:14:07;17.90;47.70
40289;DHT22;28991;52.028;5.526;2024-01-30T05:16:34;17.80;47.60
40289;DHT22;28991;52.028;5.526;2024-01-30T05:18:59;18.10;47.80
40289;DHT22;28991;52.028;5.526;2024-01-30T05:21:25;17.90;47.70
40289;DHT22;28991;52.028;5.526;2024-01-30T05:23:51;17.90;47.70
40289;DHT22;28991;52.028;5.526;2024-01-30T05:26:16;17.90;47.70
40289;DHT22;28991;52.028;5.526;2024-01-30T05:28:42;18.40;47.90
40289;DHT22;28991;52.028;5.526;2024-01-30T05:31:10;17.90;47.70
40289;DHT22;28991;52.028;5.526;2024-01-30T05:33:35;18.90;48.10
40289;DHT22;28991;52.028;5.526;2024-01-30T05:36:01;17.80;47.60
40289;DHT22;28991;52.028;5.526;2024-01-30T05:38:26;17.90;47.70
40289;DHT22;28991;52.028;5.526;2024-01-30T05:40:52;17.90;47.60
40289;DHT22;28991;52.028;5.526;2024-01-30T05:43:18;17.80;47.60
40289;DHT22;28991;52.028;5.526;2024-01-30T05:45:43;18.00;47.70
40289;DHT22;28991;52.028;5.526;2024-01-30T05:48:09;17.90;47.60
40289;DHT22;28991;52.028;5.526;2024-01-30T05:50:35;17.90;47.70
40289;DHT22;28991;52.028;5.526;2024-01-30T05:53:01;18.00;47.70
40289;DHT22;28991;52.028;5.526;2024-01-30T05:55:26;17.80;47.60
40289;DHT22;28991;52.028;5.526;2024-01-30T05:57:52;17.90;47.70
40289;DHT22;28991;52.028;5.526;2024-01-30T06:00:18;17.90;47.70
40289;DHT22;28991;52.028;5.526;2024-01-30T06:02:43;17.90;48.00
40289;DHT22;28991;52.028;5.526;2024-01-30T06:05:09;17.90;48.30
40289;DHT22;28991;52.028;5.526;2024-01-30T06:07:35;17.90;48.60
40289;DHT22;28991;52.028;5.526;2024-01-30T06:10:00;17.80;48.80
40289;DHT22;28991;52.028;5.526;2024-01-30T06:12:27;18.20;49.10
40289;DHT22;28991;52.028;5.526;2024-01-30T06:14:53;18.20;48.80
40289;DHT22;28991;52.028;5.526;2024-01-30T06:17:22;18.20;48.50
40289;DHT22;28991;52.028;5.526;2024-01-30T06:19:48;18.20;48.30
40289;DHT22;28991;52.028;5.526;2024-01-30T06:22:13;18.50;48.20
40289;DHT22;28991;52.028;5.526;2024-01-30T06:24:39;18.30;47.80
40289;DHT22;28991;52.028;5.526;2024-01-30T06:27:04;18.50;47.70
40289;DHT22;28991;52.028;5.526;2024-01-30T06:29:30;18.50;47.90
40289;DHT22;28991;52.028;5.526;2024-01-30T06:31:55;18.70;47.90
40289;DHT22;28991;52.028;5.526;2024-01-30T06:34:21;18.70;48.00
40289;DHT22;28991;52.028;5.526;2024-01-30T06:36:47;18.70;47.70
40289;DHT22;28991;52.028;5.526;2024-01-30T06:39:12;18.90;47.70
40289;DHT22;28991;52.028;5.526;2024-01-30T06:41:38;19.30;47.70
40289;DHT22;28991;52.028;5.526;2024-01-30T06:44:03;18.90;47.30
40289;DHT22;28991;52.028;5.526;2024-01-30T06:46:31;18.90;47.00
40289;DHT22;28991;52.028;5.526;2024-01-30T06:48:57;19.00;47.00
40289;DHT22;28991;52.028;5.526;2024-01-30T06:51:23;19.00;46.80
40289;DHT22;28991;52.028;5.526;2024-01-30T06:53:49;19.10;46.80
40289;DHT22;28991;52.028;5.526;2024-01-30T06:56:14;19.00;46.60
40289;DHT22;28991;52.028;5.526;2024-01-30T06:58:40;19.10;46.60
40289;DHT22;28991;52.028;5.526;2024-01-30T07:01:06;19.00;46.50
40289;DHT22;28991;52.028;5.526;2024-01-30T07:03:32;19.00;46.50
40289;DHT22;28991;52.028;5.526;2024-01-30T07:05:57;19.00;46.50
40289;DHT22;28991;52.028;5.526;2024-01-30T07:08:23;19.10;46.50
40289;DHT22;28991;52.028;5.526;2024-01-30T07:10:48;19.10;46.60
40289;DHT22;28991;52.028;5.526;2024-01-30T07:13:14;18.70;46.50
40289;DHT22;28991;52.028;5.526;2024-01-30T07:15:42;19.20;47.50
40289;DHT22;28991;52.028;5.526;2024-01-30T07:18:07;19.10;46.90
40289;DHT22;28991;52.028;5.526;2024-01-30T07:20:33;20.20;47.80
40289;DHT22;28991;52.028;5.526;2024-01-30T07:22:58;19.20;47.30
40289;DHT22;28991;52.028;5.526;2024-01-30T07:25:24;19.20;47.50
40289;DHT22;28991;52.028;5.526;2024-01-30T07:27:52;19.30;47.10
40289;DHT22;28991;52.028;5.526;2024-01-30T07:30:21;19.20;46.90
40289;DHT22;28991;52.028;5.526;2024-01-30T07:32:47;19.30;46.70
40289;DHT22;28991;52.028;5.526;2024-01-30T07:35:13;19.40;46.60
40289;DHT22;28991;52.028;5.526;2024-01-30T07:37:39;19.30;46.90
40289;DHT22;28991;52.028;5.526;2024-01-30T07:40:05;19.30;46.70
40289;DHT22;28991;52.028;5.526;2024-01-30T07:42:32;19.40;46.70
40289;DHT22;28991;52.028;5.526;2024-01-30T07:44:58;19.50;46.70
40289;DHT22;28991;52.028;5.526;2024-01-30T07:47:24;19.30;46.60
40289;DHT22;28991;52.028;5.526;2024-01-30T07:49:49;19.60;46.60
40289;DHT22;28991;52.028;5.526;2024-01-30T07:52:15;19.50;46.60
40289;DHT22;28991;52.028;5.526;2024-01-30T07:54:51;19.60;46.60
40289;DHT22;28991;52.028;5.526;2024-01-30T07:57:17;19.50;46.60
40289;DHT22;28991;52.028;5.526;2024-01-30T07:59:46;19.60;46.60
40289;DHT22;28991;52.028;5.526;2024-01-30T08:02:12;19.60;46.70
40289;DHT22;28991;52.028;5.526;2024-01-30T08:04:38;19.60;46.60
40289;DHT22;28991;52.028;5.526;2024-01-30T08:07:03;19.70;46.70
40289;DHT22;28991;52.028;5.526;2024-01-30T08:09:29;19.60;46.90
40289;DHT22;28991;52.028;5.526;2024-01-30T08:11:55;19.70;46.70
40289;DHT22;28991;52.028;5.526;2024-01-30T08:14:20;19.60;46.60
40289;DHT22;28991;52.028;5.526;2024-01-30T08:16:46;19.60;46.70
40289;DHT22;28991;52.028;5.526;2024-01-30T08:19:11;19.70;46.70
40289;DHT22;28991;52.028;5.526;2024-01-30T08:21:37;19.80;47.00
40289;DHT22;28991;52.028;5.526;2024-01-30T08:24:03;19.60;46.90
40289;DHT22;28991;52.028;5.526;2024-01-30T08:26:30;19.60;47.10
40289;DHT22;28991;52.028;5.526;2024-01-30T08:28:55;19.60;47.40
40289;DHT22;28991;52.028;5.526;2024-01-30T08:31:21;19.60;47.20
40289;DHT22;28991;52.028;5.526;2024-01-30T08:33:47;19.60;47.00
40289;DHT22;28991;52.028;5.526;2024-01-30T08:36:12;19.60;47.20
40289;DHT22;28991;52.028;5.526;2024-01-30T08:38:38;19.50;47.60
40289;DHT22;28991;52.028;5.526;2024-01-30T08:41:04;19.60;47.60
40289;DHT22;28991;52.028;5.526;2024-01-30T08:43:30;19.60;47.70
40289;DHT22;28991;52.028;5.526;2024-01-30T08:45:59;19.60;47.60
40289;DHT22;28991;52.028;5.526;2024-01-30T08:48:25;19.60;47.80
40289;DHT22;28991;52.028;5.526;2024-01-30T08:50:51;19.60;47.40
40289;DHT22;28991;52.028;5.526;2024-01-30T08:53:16;19.70;47.90
40289;DHT22;28991;52.028;5.526;2024-01-30T08:55:42;19.70;48.10
40289;DHT22;28991;52.028;5.526;2024-01-30T08:58:07;19.70;48.10
40289;DHT22;28991;52.028;5.526;2024-01-30T09:00:33;19.80;47.80
40289;DHT22;28991;52.028;5.526;2024-01-30T09:02:59;19.70;47.80
40289;DHT22;28991;52.028;5.526;2024-01-30T09:05:24;19.70;47.80
40289;DHT22;28991;52.028;5.526;2024-01-30T09:07:50;19.80;47.60
40289;DHT22;28991;52.028;5.526;2024-01-30T09:10:15;20.40;48.00
40289;DHT22;28991;52.028;5.526;2024-01-30T09:12:41;19.80;48.50
40289;DHT22;28991;52.028;5.526;2024-01-30T09:15:08;19.80;48.00
40289;DHT22;28991;52.028;5.526;2024-01-30T09:17:34;19.80;47.90
40289;DHT22;28991;52.028;5.526;2024-01-30T09:19:59;19.70;47.90
40289;DHT22;28991;52.028;5.526;2024-01-30T09:22:25;19.70;47.90
40289;DHT22;28991;52.028;5.526;2024-01-30T09:24:50;19.70;48.00
40289;DHT22;28991;52.028;5.526;2024-01-30T09:27:16;19.60;48.20
40289;DHT22;28991;52.028;5.526;2024-01-30T09:29:42;19.70;48.00
40289;DHT22;28991;52.028;5.526;2024-01-30T09:32:07;19.70;48.20
40289;DHT22;28991;52.028;5.526;2024-01-30T09:34:34;19.60;48.20
40289;DHT22;28991;52.028;5.526;2024-01-30T09:37:00;19.70;48.20
40289;DHT22;28991;52.028;5.526;2024-01-30T09:39:26;19.70;48.10
40289;DHT22;28991;52.028;5.526;2024-01-30T09:42:00;19.70;48.40
40289;DHT22;28991;52.028;5.526;2024-01-30T09:44:29;19.60;48.50
40289;DHT22;28991;52.028;5.526;2024-01-30T09:46:55;19.70;48.80
40289;DHT22;28991;52.028;5.526;2024-01-30T09:49:24;19.60;49.00
40289;DHT22;28991;52.028;5.526;2024-01-30T09:51:50;19.50;49.30
40289;DHT22;28991;52.028;5.526;2024-01-30T09:54:16;19.70;49.30
40289;DHT22;28991;52.028;5.526;2024-01-30T09:56:42;19.70;48.90
40289;DHT22;28991;52.028;5.526;2024-01-30T09:59:09;19.60;50.10
40289;DHT22;28991;52.028;5.526;2024-01-30T10:01:35;19.60;49.60
40289;DHT22;28991;52.028;5.526;2024-01-30T10:04:01;19.70;49.60
40289;DHT22;28991;52.028;5.526;2024-01-30T10:06:27;19.60;49.40
40289;DHT22;28991;52.028;5.526;2024-01-30T10:08:53;19.60;49.60
40289;DHT22;28991;52.028;5.526;2024-01-30T10:11:19;19.70;49.60
40289;DHT22;28991;52.028;5.526;2024-01-30T10:13:45;19.60;49.80
40289;DHT22;28991;52.028;5.526;2024-01-30T10:16:14;19.50;49.80
40289;DHT22;28991;52.028;5.526;2024-01-30T10:18:41;19.60;50.00
40289;DHT22;28991;52.028;5.526;2024-01-30T10:21:07;19.60;50.20
40289;DHT22;28991;52.028;5.526;2024-01-30T10:23:33;19.60;49.70
40289;DHT22;28991;52.028;5.526;2024-01-30T10:25:59;19.50;50.90
40289;DHT22;28991;52.028;5.526;2024-01-30T10:28:27;19.50;51.60
40289;DHT22;28991;52.028;5.526;2024-01-30T10:31:01;19.50;51.10
40289;DHT22;28991;52.028;5.526;2024-01-30T10:33:27;19.60;51.10
40289;DHT22;28991;52.028;5.526;2024-01-30T10:36:04;19.60;51.20
40289;DHT22;28991;52.028;5.526;2024-01-30T10:38:32;19.60;50.10
40289;DHT22;28991;52.028;5.526;2024-01-30T10:40:59;19.90;50.30
40289;DHT22;28991;52.028;5.526;2024-01-30T10:43:35;19.80;50.80
40289;DHT22;28991;52.028;5.526;2024-01-30T10:46:21;19.80;50.30
40289;DHT22;28991;52.028;5.526;2024-01-30T10:48:58;19.90;50.20
40289;DHT22;28991;52.028;5.526;2024-01-30T10:51:26;19.90;50.10
40289;DHT22;28991;52.028;5.526;2024-01-30T10:53:52;19.70;49.80
40289;DHT22;28991;52.028;5.526;2024-01-30T10:56:23;20.20;50.80
40289;DHT22;28991;52.028;5.526;2024-01-30T10:58:53;20.00;49.70
40289;DHT22;28991;52.028;5.526;2024-01-30T11:01:21;20.00;49.30
40289;DHT22;28991;52.028;5.526;2024-01-30T11:03:53;20.00;50.10
40289;DHT22;28991;52.028;5.526;2024-01-30T11:06:22;20.10;49.60
40289;DHT22;28991;52.028;5.526;2024-01-30T11:09:04;20.00;49.80
40289;DHT22;28991;52.028;5.526;2024-01-30T11:11:51;20.00;49.60
40289;DHT22;28991;52.028;5.526;2024-01-30T11:14:23;20.00;49.80
40289;DHT22;28991;52.028;5.526;2024-01-30T11:16:49;19.90;49.90
40289;DHT22;28991;52.028;5.526;2024-01-30T11:19:14;19.90;49.40
40289;DHT22;28991;52.028;5.526;2024-01-30T11:21:41;19.90;50.00
40289;DHT22;28991;52.028;5.526;2024-01-30T11:24:08;20.20;50.00
40289;DHT22;28991;52.028;5.526;2024-01-30T11:26:33;19.80;49.80
40289;DHT22;28991;52.028;5.526;2024-01-30T11:29:03;19.90;49.90
40289;DHT22;28991;52.028;5.526;2024-01-30T11:31:29;19.70;49.60
40289;DHT22;28991;52.028;5.526;2024-01-30T11:33:56;20.00;50.00
40289;DHT22;28991;52.028;5.526;2024-01-30T11:36:25;20.10;50.30
40289;DHT22;28991;52.028;5.526;2024-01-30T11:38:52;19.90;49.70
40289;DHT22;28991;52.028;5.526;2024-01-30T11:41:18;19.90;50.90
40289;DHT22;28991;52.028;5.526;2024-01-30T11:43:51;19.90;50.30
40289;DHT22;28991;52.028;5.526;2024-01-30T11:46:17;19.90;49.90
40289;DHT22;28991;52.028;5.526;2024-01-30T11:48:42;19.90;49.60
40289;DHT22;28991;52.028;5.526;2024-01-30T11:51:08;19.90;49.50
40289;DHT22;28991;52.028;5.526;2024-01-30T11:53:34;20.00;49.50
40289;DHT22;28991;52.028;5.526;2024-01-30T11:55:59;19.90;49.60
40289;DHT22;28991;52.028;5.526;2024-01-30T11:58:25;19.90;49.20
40289;DHT22;28991;52.028;5.526;2024-01-30T12:00:57;19.90;49.00
40289;DHT22;28991;52.028;5.526;2024-01-30T12:03:23;20.00;49.30
40289;DHT22;28991;52.028;5.526;2024-01-30T12:05:55;20.10;49.20
40289;DHT22;28991;52.028;5.526;2024-01-30T12:08:22;20.00;48.90
40289;DHT22;28991;52.028;5.526;2024-01-30T12:10:55;20.10;49.00
40289;DHT22;28991;52.028;5.526;2024-01-30T12:13:21;20.10;49.10
40289;DHT22;28991;52.028;5.526;2024-01-30T12:15:47;20.20;49.00
40289;DHT22;28991;52.028;5.526;2024-01-30T12:18:13;20.10;48.90
40289;DHT22;28991;52.028;5.526;2024-01-30T12:20:38;20.10;48.80
40289;DHT22;28991;52.028;5.526;2024-01-30T12:23:04;20.10;48.90
40289;DHT22;28991;52.028;5.526;2024-01-30T12:25:29;20.20;49.20
40289;DHT22;28991;52.028;5.526;2024-01-30T12:27:55;20.60;49.00
40289;DHT22;28991;52.028;5.526;2024-01-30T12:30:21;20.30;48.70
40289;DHT22;28991;52.028;5.526;2024-01-30T12:32:49;20.10;48.90
40289;DHT22;28991;52.028;5.526;2024-01-30T12:35:17;20.10;48.60
40289;DHT22;28991;52.028;5.526;2024-01-30T12:37:44;20.80;48.90
40289;DHT22;28991;52.028;5.526;2024-01-30T12:40:10;20.20;48.50
40289;DHT22;28991;52.028;5.526;2024-01-30T12:42:37;20.20;48.40
40289;DHT22;28991;52.028;5.526;2024-01-30T12:45:03;20.20;48.40
40289;DHT22;28991;52.028;5.526;2024-01-30T12:47:32;20.20;48.30
40289;DHT22;28991;52.028;5.526;2024-01-30T12:49:58;20.30;48.40
40289;DHT22;28991;52.028;5.526;2024-01-30T12:52:24;20.30;48.40
40289;DHT22;28991;52.028;5.526;2024-01-30T12:54:50;20.30;48.40
40289;DHT22;28991;52.028;5.526;2024-01-30T12:57:16;20.20;48.30
40289;DHT22;28991;52.028;5.526;2024-01-30T12:59:43;20.30;48.60
40289;DHT22;28991;52.028;5.526;2024-01-30T13:02:09;20.20;48.50
40289;DHT22;28991;52.028;5.526;2024-01-30T13:04:35;20.20;48.50
40289;DHT22;28991;52.028;5.526;2024-01-30T13:07:01;20.20;48.50
40289;DHT22;28991;52.028;5.526;2024-01-30T13:09:27;20.30;48.70
40289;DHT22;28991;52.028;5.526;2024-01-30T13:11:52;20.20;48.40
40289;DHT22;28991;52.028;5.526;2024-01-30T13:14:18;20.10;48.20
40289;DHT22;28991;52.028;5.526;2024-01-30T13:16:44;20.20;48.20
40289;DHT22;28991;52.028;5.526;2024-01-30T13:19:10;20.10;48.60
40289;DHT22;28991;52.028;5.526;2024-01-30T13:21:36;20.00;48.00
40289;DHT22;28991;52.028;5.526;2024-01-30T13:24:02;20.10;47.80
40289;DHT22;28991;52.028;5.526;2024-01-30T13:26:27;20.10;47.90
40289;DHT22;28991;52.028;5.526;2024-01-30T13:28:53;20.30;47.90
40289;DHT22;28991;52.028;5.526;2024-01-30T13:31:19;20.00;47.80
40289;DHT22;28991;52.028;5.526;2024-01-30T13:33:45;20.10;47.80
40289;DHT22;28991;52.028;5.526;2024-01-30T13:36:11;20.10;47.90
40289;DHT22;28991;52.028;5.526;2024-01-30T13:38:37;20.00;47.70
40289;DHT22;28991;52.028;5.526;2024-01-30T13:41:03;20.00;47.80
40289;DHT22;28991;52.028;5.526;2024-01-30T13:43:29;20.10;47.90
40289;DHT22;28991;52.028;5.526;2024-01-30T13:45:54;20.10;47.90
40289;DHT22;28991;52.028;5.526;2024-01-30T13:48:20;20.10;47.80
40289;DHT22;28991;52.028;5.526;2024-01-30T13:50:47;20.10;47.50
40289;DHT22;28991;52.028;5.526;2024-01-30T13:53:13;20.10;47.40
40289;DHT22;28991;52.028;5.526;2024-01-30T13:55:38;20.00;47.50
40289;DHT22;28991;52.028;5.526;2024-01-30T13:58:05;20.10;47.40
40289;DHT22;28991;52.028;5.526;2024-01-30T14:00:31;20.10;47.40
40289;DHT22;28991;52.028;5.526;2024-01-30T14:02:56;20.10;47.40
40289;DHT22;28991;52.028;5.526;2024-01-30T14:05:24;20.10;47.10
40289;DHT22;28991;52.028;5.526;2024-01-30T14:07:50;20.00;47.30
40289;DHT22;28991;52.028;5.526;2024-01-30T14:10:16;20.10;47.20
40289;DHT22;28991;52.028;5.526;2024-01-30T14:12:43;20.00;47.20
40289;DHT22;28991;52.028;5.526;2024-01-30T14:15:09;19.90;47.20
40289;DHT22;28991;52.028;5.526;2024-01-30T14:17:35;20.10;47.40
40289;DHT22;28991;52.028;5.526;2024-01-30T14:20:02;20.00;47.30
40289;DHT22;28991;52.028;5.526;2024-01-30T14:22:28;20.40;47.40
40289;DHT22;28991;52.028;5.526;2024-01-30T14:24:54;19.90;47.10
40289;DHT22;28991;52.028;5.526;2024-01-30T14:27:21;20.00;47.20
40289;DHT22;28991;52.028;5.526;2024-01-30T14:29:47;20.00;47.10
40289;DHT22;28991;52.028;5.526;2024-01-30T14:32:12;20.00;47.10
40289;DHT22;28991;52.028;5.526;2024-01-30T14:34:38;20.00;47.10
40289;DHT22;28991;52.028;5.526;2024-01-30T14:37:04;20.00;47.10
40289;DHT22;28991;52.028;5.526;2024-01-30T14:39:30;20.00;47.10
40289;DHT22;28991;52.028;5.526;2024-01-30T14:41:55;20.00;47.20
40289;DHT22;28991;52.028;5.526;2024-01-30T14:44:21;19.90;46.90
40289;DHT22;28991;52.028;5.526;2024-01-30T14:46:47;20.00;47.00
40289;DHT22;28991;52.028;5.526;2024-01-30T14:49:12;19.90;47.00
40289;DHT22;28991;52.028;5.526;2024-01-30T14:51:38;20.10;47.10
40289;DHT22;28991;52.028;5.526;2024-01-30T14:54:03;19.90;47.50
40289;DHT22;28991;52.028;5.526;2024-01-30T14:56:29;19.90;47.00
40289;DHT22;28991;52.028;5.526;2024-01-30T14:58:54;19.90;46.90
40289;DHT22;28991;52.028;5.526;2024-01-30T15:01:21;19.90;46.90
40289;DHT22;28991;52.028;5.526;2024-01-30T15:03:46;19.90;46.90
40289;DHT22;28991;52.028;5.526;2024-01-30T15:06:13;19.90;46.90
40289;DHT22;28991;52.028;5.526;2024-01-30T15:08:38;19.80;47.10
40289;DHT22;28991;52.028;5.526;2024-01-30T15:11:04;19.80;47.20
40289;DHT22;28991;52.028;5.526;2024-01-30T15:13:30;19.80;47.30
40289;DHT22;28991;52.028;5.526;2024-01-30T15:15:56;19.70;47.60
40289;DHT22;28991;52.028;5.526;2024-01-30T15:18:22;19.70;47.60
40289;DHT22;28991;52.028;5.526;2024-01-30T15:20:47;19.70;47.70
40289;DHT22;28991;52.028;5.526;2024-01-30T15:23:13;19.80;47.70